createdAt,value
2022-09-07T00:03:13.541Z,101347.53
2022-09-07T00:08:04.044Z,101342.66
2022-09-07T00:12:54.615Z,101340.22
2022-09-07T00:17:44.947Z,101328.06
2022-09-07T00:22:38.506Z,101308.97
2022-09-07T00:27:28.612Z,101283.88
2022-09-07T00:32:18.328Z,101262.13
2022-09-07T00:37:08.233Z,101269.06
2022-09-07T00:42:00.189Z,101271.69
2022-09-07T00:46:49.647Z,101268.25
2022-09-07T00:51:42.370Z,101266.63
2022-09-07T00:56:39.747Z,101271.75
2022-09-07T01:01:31.961Z,101283.06
2022-09-07T01:06:23.565Z,101284.69
2022-09-07T01:11:13.480Z,101310.72
2022-09-07T01:16:08.834Z,101351.56
2022-09-07T01:21:12.170Z,101366.31
2022-09-07T01:26:12.733Z,101365.44
2022-09-07T01:31:13.365Z,101338.22
2022-09-07T01:36:09.168Z,101329.75
2022-09-07T01:41:02.644Z,101323.91
2022-09-07T01:45:54.259Z,101308.28
2022-09-07T01:50:50.554Z,101292.69
2022-09-07T01:55:44.203Z,101293.75
2022-09-07T02:00:35.170Z,101303.41
2022-09-07T02:05:27.761Z,101304.31
2022-09-07T02:10:23.340Z,101298.31
2022-09-07T02:15:14.815Z,101302.59
2022-09-07T02:20:09.207Z,101319.97
2022-09-07T02:25:01.144Z,101339.84
2022-09-07T02:29:54.440Z,101326.63
2022-09-07T02:34:44.579Z,101335.19
2022-09-07T02:39:35.332Z,101328.28
2022-09-07T02:44:28.431Z,101329.16
2022-09-07T02:49:29.326Z,101322.97
2022-09-07T02:54:27.964Z,101302.94
2022-09-07T02:59:24.893Z,101294.31
2022-09-07T03:04:16.410Z,101296.97
2022-09-07T03:09:12.850Z,101290.88
2022-09-07T03:14:14.407Z,101285.59
2022-09-07T03:19:04.612Z,101276.00
2022-09-07T03:23:55.013Z,101269.09
2022-09-07T03:28:47.082Z,101277.91
2022-09-07T03:33:36.551Z,101270.16
2022-09-07T03:38:26.028Z,101283.31
2022-09-07T03:43:15.420Z,101275.56
2022-09-07T03:48:07.422Z,101291.28
2022-09-07T03:52:56.959Z,101292.31
2022-09-07T03:57:46.358Z,101298.44
2022-09-07T04:02:36.351Z,101295.88
2022-09-07T04:07:28.780Z,101307.25
2022-09-07T04:12:18.132Z,101297.72
2022-09-07T04:17:07.673Z,101265.44
2022-09-07T04:21:57.140Z,101269.78
2022-09-07T04:26:49.307Z,101265.50
2022-09-07T04:31:39.187Z,101275.09
2022-09-07T04:36:28.633Z,101271.63
2022-09-07T04:41:18.785Z,101276.81
2022-09-07T04:46:14.062Z,101272.50
2022-09-07T04:51:07.254Z,101261.22
2022-09-07T04:55:57.432Z,101263.78
2022-09-07T05:00:47.190Z,101261.25
2022-09-07T05:05:41.814Z,101244.75
2022-09-07T05:10:31.382Z,101244.81
2022-09-07T05:15:20.770Z,101245.63
2022-09-07T05:20:18.408Z,101248.25
2022-09-07T05:25:13.276Z,101256.94
2022-09-07T05:30:03.863Z,101275.31
2022-09-07T05:34:55.192Z,101273.63
2022-09-07T05:39:45.296Z,101271.09
2022-09-07T05:44:45.733Z,101273.66
2022-09-07T05:49:36.177Z,101277.19
2022-09-07T05:54:26.896Z,101291.13
2022-09-07T05:59:16.452Z,101297.25
2022-09-07T06:04:08.917Z,101305.97
2022-09-07T06:08:59.063Z,101293.78
2022-09-07T06:13:48.694Z,101299.84
2022-09-07T06:18:39.765Z,101304.16
2022-09-07T06:23:32.595Z,101304.19
2022-09-07T06:28:22.413Z,101300.69
2022-09-07T06:33:11.939Z,101311.09
2022-09-07T06:38:01.278Z,101307.63
2022-09-07T06:42:53.392Z,101316.34
2022-09-07T06:47:43.159Z,101315.47
2022-09-07T06:57:42.547Z,101321.47
2022-09-07T07:02:35.240Z,101326.59
2022-09-07T07:07:24.813Z,101336.13
2022-09-07T07:17:07.057Z,101347.22
2022-09-07T07:27:10.886Z,101331.38
2022-09-07T07:32:01.480Z,101331.38
2022-09-07T07:36:50.991Z,101345.16
2022-09-07T07:42:03.065Z,101347.69
2022-09-07T07:46:56.672Z,101363.25
2022-09-07T07:57:00.236Z,101362.88
2022-09-07T08:01:50.738Z,101362.78
2022-09-07T08:06:45.487Z,101374.81
2022-09-07T08:11:36.064Z,101367.72
2022-09-07T08:16:29.997Z,101356.31
2022-09-07T08:21:20.649Z,101364.88
2022-09-07T08:26:11.208Z,101365.72
2022-09-07T08:31:02.465Z,101359.41
2022-09-07T08:36:03.086Z,101365.06
2022-09-07T08:40:54.170Z,101362.09
2022-09-07T08:45:46.468Z,101356.41
2022-09-07T08:50:39.701Z,101351.56
2022-09-07T08:55:33.083Z,101351.03
2022-09-07T09:00:23.137Z,101357.75
2022-09-07T09:05:18.852Z,101350.41
2022-09-07T09:10:19.639Z,101349.22
2022-09-07T09:15:21.245Z,101354.00
2022-09-07T09:20:19.798Z,101367.22
2022-09-07T09:25:19.347Z,101356.31
2022-09-07T09:30:14.999Z,101351.38
2022-09-07T09:35:16.073Z,101356.47
2022-09-07T09:40:07.226Z,101358.28
2022-09-07T09:44:57.701Z,101353.41
2022-09-07T09:49:48.089Z,101361.34
2022-09-07T09:54:42.352Z,101349.06
2022-09-07T10:04:44.359Z,101357.75
2022-09-07T10:09:38.225Z,101356.50
2022-09-07T10:14:32.784Z,101354.66
2022-09-07T10:19:27.748Z,101361.13
2022-09-07T10:24:18.888Z,101349.19
2022-09-07T10:29:19.328Z,101349.19
2022-09-07T10:34:32.791Z,101353.28
2022-09-07T10:39:28.365Z,101348.63
2022-09-07T10:44:25.151Z,101340.50
2022-09-07T10:49:27.563Z,101327.97
2022-09-07T10:54:30.380Z,101320.47
2022-09-07T11:04:59.232Z,101320.25
2022-09-07T11:10:01.563Z,101328.47
2022-09-07T11:14:56.762Z,101323.97
2022-09-07T11:19:56.600Z,101316.53
2022-09-07T11:30:09.266Z,101325.09
2022-09-07T11:35:08.835Z,101302.28
2022-09-07T11:40:04.532Z,101319.63
2022-09-07T11:45:00.614Z,101308.34
2022-09-07T11:49:59.186Z,101302.88
2022-09-07T11:54:58.752Z,101295.81
2022-09-07T12:00:00.964Z,101296.72
2022-09-07T12:05:14.292Z,101301.66
2022-09-07T12:10:46.929Z,101293.38
2022-09-07T12:15:47.523Z,101294.00
2022-09-07T12:20:49.401Z,101281.56
2022-09-07T12:25:42.604Z,101283.91
2022-09-07T12:31:02.375Z,101283.91
2022-09-07T12:35:55.200Z,101287.03
2022-09-07T12:41:03.752Z,101274.91
2022-09-07T12:45:57.215Z,101281.41
2022-09-07T12:50:59.322Z,101266.75
2022-09-07T12:56:18.913Z,101269.00
2022-09-07T13:01:25.517Z,101254.19
2022-09-07T13:11:40.647Z,101252.00
2022-09-07T13:21:58.970Z,101248.69
2022-09-07T13:27:00.556Z,101244.75
2022-09-07T13:32:07.989Z,101235.47
2022-09-07T13:36:58.896Z,101234.00
2022-09-07T13:41:54.188Z,101222.59
2022-09-07T13:46:53.826Z,101225.31
2022-09-07T13:51:54.740Z,101221.66
2022-09-07T13:56:56.345Z,101218.16
2022-09-07T14:01:50.119Z,101215.16
2022-09-07T14:06:41.836Z,101222.84
2022-09-07T14:11:43.486Z,101213.06
2022-09-07T14:16:34.380Z,101214.13
2022-09-07T14:21:25.537Z,101209.72
2022-09-07T14:26:20.254Z,101210.94
2022-09-07T14:31:18.272Z,101211.16
2022-09-07T14:36:36.316Z,101213.91
2022-09-07T14:41:28.684Z,101210.97
2022-09-07T14:46:26.999Z,101211.34
2022-09-07T14:51:35.260Z,101210.66
2022-09-07T14:56:34.766Z,101197.66
2022-09-07T15:01:38.345Z,101195.50
2022-09-07T15:12:06.928Z,101187.63
2022-09-07T15:22:17.676Z,101163.66
2022-09-07T15:27:22.219Z,101171.03
2022-09-07T15:32:16.851Z,101171.63
2022-09-07T15:47:51.705Z,101178.59
2022-09-07T15:52:42.740Z,101165.31
2022-09-07T15:58:05.183Z,101155.03
2022-09-07T16:03:07.084Z,101145.56
2022-09-07T16:13:16.221Z,101150.50
2022-09-07T16:18:16.590Z,101148.56
2022-09-07T16:23:15.534Z,101144.84
2022-09-07T16:28:08.657Z,101149.56
2022-09-07T16:32:58.965Z,101143.41
2022-09-07T16:43:01.715Z,101127.50
2022-09-07T16:47:51.390Z,101132.66
2022-09-07T16:52:42.161Z,101139.78
2022-09-07T16:58:35.430Z,101127.09
2022-09-07T17:02:45.525Z,101135.97
2022-09-07T17:07:36.252Z,101146.03
2022-09-07T17:12:27.128Z,101133.16
2022-09-07T17:17:22.657Z,101136.66
2022-09-07T17:22:12.517Z,101130.56
2022-09-07T17:27:03.671Z,101125.44
2022-09-07T17:37:07.083Z,101113.50
2022-09-07T17:41:57.096Z,101117.16
2022-09-07T17:46:48.246Z,101112.03
2022-09-07T17:51:39.036Z,101111.41
2022-09-07T17:56:32.375Z,101103.47
2022-09-07T18:01:25.082Z,101113.63
2022-09-07T18:06:17.036Z,101105.25
2022-09-07T18:16:25.774Z,101095.13
2022-09-07T18:21:17.342Z,101092.09
2022-09-07T18:26:09.046Z,101098.72
2022-09-07T18:30:59.081Z,101099.22
2022-09-07T18:35:52.222Z,101082.69
2022-09-07T18:40:43.784Z,101095.34
2022-09-07T18:45:35.369Z,101090.50
2022-09-07T18:50:26.483Z,101085.19
2022-09-07T18:55:23.946Z,101086.09
2022-09-07T19:00:17.915Z,101089.75
2022-09-07T19:10:23.422Z,101096.88
2022-09-07T19:15:14.429Z,101103.75
2022-09-07T19:20:05.961Z,101093.22
2022-09-07T19:24:56.255Z,101103.50
2022-09-07T19:29:52.408Z,101098.09
2022-09-07T19:34:44.919Z,101100.72
2022-09-07T19:39:35.571Z,101095.59
2022-09-07T19:44:26.037Z,101095.72
2022-09-07T19:49:19.359Z,101101.75
2022-09-07T19:54:11.011Z,101096.63
2022-09-07T19:59:01.660Z,101094.34
2022-09-07T20:03:58.574Z,101086.56
2022-09-07T20:08:51.753Z,101093.78
2022-09-07T20:13:49.582Z,101090.63
2022-09-07T20:18:40.283Z,101077.66
2022-09-07T20:23:34.249Z,101079.47
2022-09-07T20:28:27.413Z,101069.94
2022-09-07T20:33:17.899Z,101050.78
2022-09-07T20:38:08.144Z,101047.50
2022-09-07T20:42:58.899Z,101039.78
2022-09-07T20:47:51.841Z,101034.72
2022-09-07T20:52:41.906Z,101044.56
2022-09-07T20:57:32.340Z,101042.03
2022-09-07T21:02:22.498Z,101039.78
2022-09-07T21:07:15.499Z,101029.50
2022-09-07T21:12:05.315Z,101035.00
2022-09-07T21:16:55.512Z,101042.25
2022-09-07T21:21:46.500Z,101037.19
2022-09-07T21:26:39.410Z,101036.31
2022-09-07T21:31:30.216Z,101040.63
2022-09-07T21:36:20.346Z,101037.00
2022-09-07T21:41:10.423Z,101036.97
2022-09-07T21:46:08.229Z,101030.84
2022-09-07T21:50:59.560Z,101040.47
2022-09-07T21:55:57.540Z,101040.78
2022-09-07T22:00:48.031Z,101039.16
2022-09-07T22:05:42.131Z,101035.72
2022-09-07T22:10:32.373Z,101039.22
2022-09-07T22:15:22.625Z,101037.63
2022-09-07T22:20:13.369Z,101028.84
2022-09-07T22:25:06.488Z,101020.19
2022-09-07T22:29:57.137Z,101028.97
2022-09-07T22:34:47.191Z,101022.03
2022-09-07T22:39:37.697Z,101023.16
2022-09-07T22:44:30.686Z,101021.75
2022-09-07T22:49:21.166Z,101011.28
2022-09-07T22:54:13.440Z,101012.38
2022-09-07T22:59:04.187Z,101008.91
2022-09-07T23:03:57.446Z,101003.94
2022-09-07T23:08:47.538Z,100996.28
2022-09-07T23:13:37.880Z,100991.19
2022-09-07T23:18:28.093Z,100975.50
2022-09-07T23:23:21.106Z,100970.44
2022-09-07T23:28:13.791Z,100961.09
2022-09-07T23:33:03.408Z,100961.06
2022-09-07T23:37:53.359Z,100951.44
2022-09-07T23:42:46.005Z,100938.59
2022-09-07T23:47:36.148Z,100933.50
2022-09-07T23:52:26.936Z,100930.91
2022-09-07T23:57:17.534Z,100934.47
